sensor_id;sensor_type;location;lat;lon;timestamp;temperature;humidity
33564;DHT22;19894;48.452;11.494;2023-06-04T00:01:11;20.40;49.10
33564;DHT22;19894;48.452;11.494;2023-06-04T00:03:37;20.40;49.10
33564;DHT22;19894;48.452;11.494;2023-06-04T00:06:02;20.40;49.00
33564;DHT22;19894;48.452;11.494;2023-06-04T00:08:28;20.40;49.00
33564;DHT22;19894;48.452;11.494;2023-06-04T00:10:53;20.40;49.30
33564;DHT22;19894;48.452;11.494;2023-06-04T00:13:19;20.40;49.00
33564;DHT22;19894;48.452;11.494;2023-06-04T00:15:45;20.50;49.00
33564;DHT22;19894;48.452;11.494;2023-06-04T00:18:10;20.40;49.00
33564;DHT22;19894;48.452;11.494;2023-06-04T00:20:38;20.50;49.00
33564;DHT22;19894;48.452;11.494;2023-06-04T00:23:04;20.50;49.00
33564;DHT22;19894;48.452;11.494;2023-06-04T00:25:29;20.50;48.90
33564;DHT22;19894;48.452;11.494;2023-06-04T00:27:55;20.50;48.90
33564;DHT22;19894;48.452;11.494;2023-06-04T00:30:20;20.50;48.90
33564;DHT22;19894;48.452;11.494;2023-06-04T00:32:46;20.50;48.90
33564;DHT22;19894;48.452;11.494;2023-06-04T00:35:12;20.50;48.90
33564;DHT22;19894;48.452;11.494;2023-06-04T00:37:38;20.50;48.90
33564;DHT22;19894;48.452;11.494;2023-06-04T00:40:04;20.40;48.80
33564;DHT22;19894;48.452;11.494;2023-06-04T00:42:31;20.40;48.70
33564;DHT22;19894;48.452;11.494;2023-06-04T00:44:56;20.50;48.70
33564;DHT22;19894;48.452;11.494;2023-06-04T00:47:23;20.50;48.80
33564;DHT22;19894;48.452;11.494;2023-06-04T00:49:49;20.40;48.60
33564;DHT22;19894;48.452;11.494;2023-06-04T00:52:15;20.40;48.60
33564;DHT22;19894;48.452;11.494;2023-06-04T00:54:41;20.40;48.60
33564;DHT22;19894;48.452;11.494;2023-06-04T00:57:07;20.40;48.60
33564;DHT22;19894;48.452;11.494;2023-06-04T00:59:36;20.40;48.60
33564;DHT22;19894;48.452;11.494;2023-06-04T01:07:27;20.40;48.60
33564;DHT22;19894;48.452;11.494;2023-06-04T01:09:53;20.40;48.50
33564;DHT22;19894;48.452;11.494;2023-06-04T01:12:19;20.40;48.60
33564;DHT22;19894;48.452;11.494;2023-06-04T01:14:45;20.40;48.60
33564;DHT22;19894;48.452;11.494;2023-06-04T01:17:34;20.40;48.60
33564;DHT22;19894;48.452;11.494;2023-06-04T01:20:38;20.40;48.60
33564;DHT22;19894;48.452;11.494;2023-06-04T01:25:41;20.50;48.70
33564;DHT22;19894;48.452;11.494;2023-06-04T01:28:10;20.50;48.60
33564;DHT22;19894;48.452;11.494;2023-06-04T01:30:38;20.50;48.50
33564;DHT22;19894;48.452;11.494;2023-06-04T01:33:16;20.40;48.40
33564;DHT22;19894;48.452;11.494;2023-06-04T01:35:42;20.50;48.50
33564;DHT22;19894;48.452;11.494;2023-06-04T01:38:08;20.50;48.50
33564;DHT22;19894;48.452;11.494;2023-06-04T01:40:34;20.50;48.60
33564;DHT22;19894;48.452;11.494;2023-06-04T01:43:00;20.50;48.60
33564;DHT22;19894;48.452;11.494;2023-06-04T01:45:27;20.50;48.60
33564;DHT22;19894;48.452;11.494;2023-06-04T01:47:53;20.50;48.40
33564;DHT22;19894;48.452;11.494;2023-06-04T01:50:20;20.50;48.40
33564;DHT22;19894;48.452;11.494;2023-06-04T01:52:45;20.40;48.20
33564;DHT22;19894;48.452;11.494;2023-06-04T01:55:13;20.40;48.30
33564;DHT22;19894;48.452;11.494;2023-06-04T01:57:40;20.40;48.30
33564;DHT22;19894;48.452;11.494;2023-06-04T02:00:07;20.40;48.20
33564;DHT22;19894;48.452;11.494;2023-06-04T02:02:34;20.40;48.20
33564;DHT22;19894;48.452;11.494;2023-06-04T02:05:01;20.40;48.10
33564;DHT22;19894;48.452;11.494;2023-06-04T02:07:27;20.40;48.20
33564;DHT22;19894;48.452;11.494;2023-06-04T02:09:53;20.40;48.20
33564;DHT22;19894;48.452;11.494;2023-06-04T02:12:18;20.40;48.20
33564;DHT22;19894;48.452;11.494;2023-06-04T02:14:44;20.40;48.00
33564;DHT22;19894;48.452;11.494;2023-06-04T02:17:12;20.40;48.00
33564;DHT22;19894;48.452;11.494;2023-06-04T02:19:42;20.40;48.00
33564;DHT22;19894;48.452;11.494;2023-06-04T02:22:18;20.40;48.20
33564;DHT22;19894;48.452;11.494;2023-06-04T02:24:44;20.40;48.70
33564;DHT22;19894;48.452;11.494;2023-06-04T02:27:11;20.40;48.10
33564;DHT22;19894;48.452;11.494;2023-06-04T02:29:39;20.40;48.10
33564;DHT22;19894;48.452;11.494;2023-06-04T02:32:06;20.40;48.10
33564;DHT22;19894;48.452;11.494;2023-06-04T02:34:32;20.40;48.00
33564;DHT22;19894;48.452;11.494;2023-06-04T02:36:59;20.50;48.10
33564;DHT22;19894;48.452;11.494;2023-06-04T02:39:25;20.50;48.10
33564;DHT22;19894;48.452;11.494;2023-06-04T02:41:50;20.50;48.10
33564;DHT22;19894;48.452;11.494;2023-06-04T02:44:16;20.50;48.10
33564;DHT22;19894;48.452;11.494;2023-06-04T02:46:41;20.50;48.10
33564;DHT22;19894;48.452;11.494;2023-06-04T02:49:09;20.50;48.10
33564;DHT22;19894;48.452;11.494;2023-06-04T02:51:39;20.40;48.00
33564;DHT22;19894;48.452;11.494;2023-06-04T02:54:05;20.40;47.90
33564;DHT22;19894;48.452;11.494;2023-06-04T02:56:30;20.40;47.90
33564;DHT22;19894;48.452;11.494;2023-06-04T02:58:56;20.40;47.80
33564;DHT22;19894;48.452;11.494;2023-06-04T03:01:23;20.40;47.80
33564;DHT22;19894;48.452;11.494;2023-06-04T03:03:49;20.40;47.70
33564;DHT22;19894;48.452;11.494;2023-06-04T03:06:16;20.40;47.80
33564;DHT22;19894;48.452;11.494;2023-06-04T03:08:42;20.40;47.90
33564;DHT22;19894;48.452;11.494;2023-06-04T03:11:08;20.40;47.90
33564;DHT22;19894;48.452;11.494;2023-06-04T03:13:34;20.40;47.90
33564;DHT22;19894;48.452;11.494;2023-06-04T03:15:59;20.40;47.70
33564;DHT22;19894;48.452;11.494;2023-06-04T03:18:28;20.40;47.80
33564;DHT22;19894;48.452;11.494;2023-06-04T03:20:54;20.40;47.70
33564;DHT22;19894;48.452;11.494;2023-06-04T03:23:21;20.40;47.80
33564;DHT22;19894;48.452;11.494;2023-06-04T03:25:46;20.40;47.90
33564;DHT22;19894;48.452;11.494;2023-06-04T03:28:12;20.40;47.90
33564;DHT22;19894;48.452;11.494;2023-06-04T03:30:39;20.40;47.80
33564;DHT22;19894;48.452;11.494;2023-06-04T03:33:05;20.40;47.80
33564;DHT22;19894;48.452;11.494;2023-06-04T03:35:30;20.50;47.80
33564;DHT22;19894;48.452;11.494;2023-06-04T03:37:56;20.40;47.70
33564;DHT22;19894;48.452;11.494;2023-06-04T03:40:21;20.50;47.80
33564;DHT22;19894;48.452;11.494;2023-06-04T03:42:47;20.50;47.70
33564;DHT22;19894;48.452;11.494;2023-06-04T03:45:12;20.50;47.70
33564;DHT22;19894;48.452;11.494;2023-06-04T03:47:38;20.40;47.70
33564;DHT22;19894;48.452;11.494;2023-06-04T03:50:05;20.50;47.80
33564;DHT22;19894;48.452;11.494;2023-06-04T03:52:31;20.40;47.90
33564;DHT22;19894;48.452;11.494;2023-06-04T03:54:56;20.40;47.90
33564;DHT22;19894;48.452;11.494;2023-06-04T03:57:22;20.50;48.00
33564;DHT22;19894;48.452;11.494;2023-06-04T03:59:48;20.40;48.00
33564;DHT22;19894;48.452;11.494;2023-06-04T04:02:14;20.40;48.00
33564;DHT22;19894;48.452;11.494;2023-06-04T04:04:39;20.40;47.70
33564;DHT22;19894;48.452;11.494;2023-06-04T04:07:05;20.40;47.50
33564;DHT22;19894;48.452;11.494;2023-06-04T04:09:31;20.40;47.50
33564;DHT22;19894;48.452;11.494;2023-06-04T04:11:56;20.40;47.50
33564;DHT22;19894;48.452;11.494;2023-06-04T04:14:22;20.40;47.60
33564;DHT22;19894;48.452;11.494;2023-06-04T04:16:47;20.40;47.50
33564;DHT22;19894;48.452;11.494;2023-06-04T04:19:13;20.40;47.60
33564;DHT22;19894;48.452;11.494;2023-06-04T04:21:39;20.40;47.40
33564;DHT22;19894;48.452;11.494;2023-06-04T04:24:05;20.40;47.50
33564;DHT22;19894;48.452;11.494;2023-06-04T04:26:32;20.40;47.40
33564;DHT22;19894;48.452;11.494;2023-06-04T04:28:57;20.30;47.30
33564;DHT22;19894;48.452;11.494;2023-06-04T04:31:32;20.40;47.50
33564;DHT22;19894;48.452;11.494;2023-06-04T04:34:01;20.40;47.50
33564;DHT22;19894;48.452;11.494;2023-06-04T04:36:33;20.40;47.50
33564;DHT22;19894;48.452;11.494;2023-06-04T04:39:00;20.40;47.50
33564;DHT22;19894;48.452;11.494;2023-06-04T04:41:25;20.40;47.50
33564;DHT22;19894;48.452;11.494;2023-06-04T04:43:53;20.40;47.50
33564;DHT22;19894;48.452;11.494;2023-06-04T04:46:18;20.40;47.50
33564;DHT22;19894;48.452;11.494;2023-06-04T04:48:44;20.50;47.50
33564;DHT22;19894;48.452;11.494;2023-06-04T04:51:09;20.50;47.50
33564;DHT22;19894;48.452;11.494;2023-06-04T04:53:35;20.40;47.50
33564;DHT22;19894;48.452;11.494;2023-06-04T04:56:00;20.40;47.60
33564;DHT22;19894;48.452;11.494;2023-06-04T04:58:26;20.40;47.60
33564;DHT22;19894;48.452;11.494;2023-06-04T05:00:51;20.40;47.60
33564;DHT22;19894;48.452;11.494;2023-06-04T05:03:17;20.40;47.80
33564;DHT22;19894;48.452;11.494;2023-06-04T05:05:42;20.40;47.80
33564;DHT22;19894;48.452;11.494;2023-06-04T05:08:09;20.40;47.80
33564;DHT22;19894;48.452;11.494;2023-06-04T05:10:34;20.40;47.70
33564;DHT22;19894;48.452;11.494;2023-06-04T05:13:01;20.40;47.50
33564;DHT22;19894;48.452;11.494;2023-06-04T05:15:27;20.40;47.40
33564;DHT22;19894;48.452;11.494;2023-06-04T05:17:53;20.40;47.50
33564;DHT22;19894;48.452;11.494;2023-06-04T05:20:19;20.40;47.50
33564;DHT22;19894;48.452;11.494;2023-06-04T05:22:46;20.40;47.50
33564;DHT22;19894;48.452;11.494;2023-06-04T05:25:12;20.40;47.50
33564;DHT22;19894;48.452;11.494;2023-06-04T05:27:39;20.40;47.70
33564;DHT22;19894;48.452;11.494;2023-06-04T05:30:06;20.40;47.60
33564;DHT22;19894;48.452;11.494;2023-06-04T05:32:32;20.40;47.50
33564;DHT22;19894;48.452;11.494;2023-06-04T05:34:58;20.40;47.40
33564;DHT22;19894;48.452;11.494;2023-06-04T05:37:27;20.40;47.60
33564;DHT22;19894;48.452;11.494;2023-06-04T05:39:55;20.40;47.60
33564;DHT22;19894;48.452;11.494;2023-06-04T05:42:21;20.40;47.60
33564;DHT22;19894;48.452;11.494;2023-06-04T05:44:46;20.40;47.60
33564;DHT22;19894;48.452;11.494;2023-06-04T05:47:12;20.40;47.60
33564;DHT22;19894;48.452;11.494;2023-06-04T05:49:37;20.40;47.60
33564;DHT22;19894;48.452;11.494;2023-06-04T05:52:03;20.40;47.60
33564;DHT22;19894;48.452;11.494;2023-06-04T05:54:29;20.40;47.60
33564;DHT22;19894;48.452;11.494;2023-06-04T05:56:55;20.40;47.70
33564;DHT22;19894;48.452;11.494;2023-06-04T05:59:21;20.40;47.70
33564;DHT22;19894;48.452;11.494;2023-06-04T06:01:46;20.40;47.80
33564;DHT22;19894;48.452;11.494;2023-06-04T06:04:14;20.40;47.80
33564;DHT22;19894;48.452;11.494;2023-06-04T06:06:41;20.40;47.90
33564;DHT22;19894;48.452;11.494;2023-06-04T06:09:09;20.40;47.90
33564;DHT22;19894;48.452;11.494;2023-06-04T06:11:35;20.40;48.00
33564;DHT22;19894;48.452;11.494;2023-06-04T06:14:01;20.40;48.00
33564;DHT22;19894;48.452;11.494;2023-06-04T06:16:27;20.40;47.90
33564;DHT22;19894;48.452;11.494;2023-06-04T06:18:52;20.40;47.80
33564;DHT22;19894;48.452;11.494;2023-06-04T06:21:19;20.40;47.90
33564;DHT22;19894;48.452;11.494;2023-06-04T06:23:45;20.40;47.90
33564;DHT22;19894;48.452;11.494;2023-06-04T06:26:11;20.40;47.90
33564;DHT22;19894;48.452;11.494;2023-06-04T06:28:37;20.40;47.60
33564;DHT22;19894;48.452;11.494;2023-06-04T06:31:02;20.30;47.60
33564;DHT22;19894;48.452;11.494;2023-06-04T06:33:28;20.30;47.50
33564;DHT22;19894;48.452;11.494;2023-06-04T06:35:53;20.40;47.60
33564;DHT22;19894;48.452;11.494;2023-06-04T06:38:19;20.40;47.40
33564;DHT22;19894;48.452;11.494;2023-06-04T06:40:45;20.40;47.50
33564;DHT22;19894;48.452;11.494;2023-06-04T06:43:10;20.40;47.30
33564;DHT22;19894;48.452;11.494;2023-06-04T06:45:36;20.40;47.50
33564;DHT22;19894;48.452;11.494;2023-06-04T06:48:02;20.40;47.40
33564;DHT22;19894;48.452;11.494;2023-06-04T06:50:27;20.40;47.40
33564;DHT22;19894;48.452;11.494;2023-06-04T06:52:53;20.40;47.40
33564;DHT22;19894;48.452;11.494;2023-06-04T06:55:18;20.40;47.40
33564;DHT22;19894;48.452;11.494;2023-06-04T06:57:44;20.40;47.30
33564;DHT22;19894;48.452;11.494;2023-06-04T07:00:10;20.40;47.30
33564;DHT22;19894;48.452;11.494;2023-06-04T07:02:36;20.40;47.30
33564;DHT22;19894;48.452;11.494;2023-06-04T07:05:02;20.40;47.30
33564;DHT22;19894;48.452;11.494;2023-06-04T07:07:28;20.40;47.20
33564;DHT22;19894;48.452;11.494;2023-06-04T07:09:53;20.40;47.20
33564;DHT22;19894;48.452;11.494;2023-06-04T07:12:19;20.40;47.30
33564;DHT22;19894;48.452;11.494;2023-06-04T07:14:45;20.40;47.30
33564;DHT22;19894;48.452;11.494;2023-06-04T07:17:10;20.40;47.30
33564;DHT22;19894;48.452;11.494;2023-06-04T07:19:36;20.40;47.30
33564;DHT22;19894;48.452;11.494;2023-06-04T07:22:01;20.40;47.20
33564;DHT22;19894;48.452;11.494;2023-06-04T07:24:27;20.40;47.20
33564;DHT22;19894;48.452;11.494;2023-06-04T07:26:52;20.40;47.30
33564;DHT22;19894;48.452;11.494;2023-06-04T07:29:19;20.40;47.40
33564;DHT22;19894;48.452;11.494;2023-06-04T07:31:44;20.40;47.40
33564;DHT22;19894;48.452;11.494;2023-06-04T07:34:10;20.40;47.40
33564;DHT22;19894;48.452;11.494;2023-06-04T07:36:36;20.40;47.50
33564;DHT22;19894;48.452;11.494;2023-06-04T07:39:02;20.40;47.50
33564;DHT22;19894;48.452;11.494;2023-06-04T07:41:30;20.30;47.30
33564;DHT22;19894;48.452;11.494;2023-06-04T07:43:55;20.30;47.20
33564;DHT22;19894;48.452;11.494;2023-06-04T07:46:21;20.40;47.20
33564;DHT22;19894;48.452;11.494;2023-06-04T07:48:46;20.30;47.20
33564;DHT22;19894;48.452;11.494;2023-06-04T07:51:13;20.40;47.30
33564;DHT22;19894;48.452;11.494;2023-06-04T07:53:39;20.40;47.30
33564;DHT22;19894;48.452;11.494;2023-06-04T07:56:05;20.40;47.20
33564;DHT22;19894;48.452;11.494;2023-06-04T07:58:31;20.40;47.20
33564;DHT22;19894;48.452;11.494;2023-06-04T08:00:56;20.40;47.20
33564;DHT22;19894;48.452;11.494;2023-06-04T08:03:22;20.40;47.30
33564;DHT22;19894;48.452;11.494;2023-06-04T08:05:48;20.40;47.20
33564;DHT22;19894;48.452;11.494;2023-06-04T08:08:14;20.40;47.20
33564;DHT22;19894;48.452;11.494;2023-06-04T08:10:40;20.40;47.20
33564;DHT22;19894;48.452;11.494;2023-06-04T08:13:05;20.40;47.20
33564;DHT22;19894;48.452;11.494;2023-06-04T08:15:31;20.40;47.20
33564;DHT22;19894;48.452;11.494;2023-06-04T08:17:57;20.40;47.20
33564;DHT22;19894;48.452;11.494;2023-06-04T08:20:23;20.40;47.20
33564;DHT22;19894;48.452;11.494;2023-06-04T08:22:48;20.40;47.20
33564;DHT22;19894;48.452;11.494;2023-06-04T08:25:14;20.40;47.30
33564;DHT22;19894;48.452;11.494;2023-06-04T08:27:41;20.40;47.30
33564;DHT22;19894;48.452;11.494;2023-06-04T08:30:08;20.40;47.30
33564;DHT22;19894;48.452;11.494;2023-06-04T08:32:34;20.40;47.20
33564;DHT22;19894;48.452;11.494;2023-06-04T08:35:00;20.40;47.30
33564;DHT22;19894;48.452;11.494;2023-06-04T08:37:25;20.40;47.40
33564;DHT22;19894;48.452;11.494;2023-06-04T08:39:51;20.40;47.40
33564;DHT22;19894;48.452;11.494;2023-06-04T08:42:30;20.40;47.40
33564;DHT22;19894;48.452;11.494;2023-06-04T08:44:58;20.30;47.30
33564;DHT22;19894;48.452;11.494;2023-06-04T08:47:25;20.30;47.40
33564;DHT22;19894;48.452;11.494;2023-06-04T08:49:52;20.40;47.40
33564;DHT22;19894;48.452;11.494;2023-06-04T08:52:18;20.30;47.30
33564;DHT22;19894;48.452;11.494;2023-06-04T08:54:48;20.30;47.30
33564;DHT22;19894;48.452;11.494;2023-06-04T08:57:15;20.40;47.40
33564;DHT22;19894;48.452;11.494;2023-06-04T08:59:42;20.40;47.40
33564;DHT22;19894;48.452;11.494;2023-06-04T09:02:08;20.40;47.40
33564;DHT22;19894;48.452;11.494;2023-06-04T09:04:34;20.40;47.40
33564;DHT22;19894;48.452;11.494;2023-06-04T09:07:03;20.40;47.50
33564;DHT22;19894;48.452;11.494;2023-06-04T09:09:29;20.40;47.50
33564;DHT22;19894;48.452;11.494;2023-06-04T09:11:57;20.40;47.40
33564;DHT22;19894;48.452;11.494;2023-06-04T09:14:23;20.40;47.40
33564;DHT22;19894;48.452;11.494;2023-06-04T09:16:50;20.40;47.40
33564;DHT22;19894;48.452;11.494;2023-06-04T09:19:17;20.40;47.40
33564;DHT22;19894;48.452;11.494;2023-06-04T09:22:00;20.40;47.30
33564;DHT22;19894;48.452;11.494;2023-06-04T09:24:45;20.40;47.40
33564;DHT22;19894;48.452;11.494;2023-06-04T09:27:12;20.40;47.40
33564;DHT22;19894;48.452;11.494;2023-06-04T09:29:39;20.40;47.40
33564;DHT22;19894;48.452;11.494;2023-06-04T09:32:04;20.40;47.40
33564;DHT22;19894;48.452;11.494;2023-06-04T09:34:30;20.40;47.40
33564;DHT22;19894;48.452;11.494;2023-06-04T09:36:57;20.40;47.40
33564;DHT22;19894;48.452;11.494;2023-06-04T09:39:23;20.40;47.40
33564;DHT22;19894;48.452;11.494;2023-06-04T09:42:01;20.40;47.40
33564;DHT22;19894;48.452;11.494;2023-06-04T09:44:30;20.40;47.40
33564;DHT22;19894;48.452;11.494;2023-06-04T09:46:56;20.40;47.50
33564;DHT22;19894;48.452;11.494;2023-06-04T09:49:22;20.40;47.60
33564;DHT22;19894;48.452;11.494;2023-06-04T09:51:48;20.40;47.60
33564;DHT22;19894;48.452;11.494;2023-06-04T09:54:14;20.40;47.60
33564;DHT22;19894;48.452;11.494;2023-06-04T09:56:40;20.40;47.50
33564;DHT22;19894;48.452;11.494;2023-06-04T09:59:08;20.40;47.50
33564;DHT22;19894;48.452;11.494;2023-06-04T10:01:39;20.40;47.50
33564;DHT22;19894;48.452;11.494;2023-06-04T10:04:07;20.40;47.40
33564;DHT22;19894;48.452;11.494;2023-06-04T10:06:34;20.40;47.30
33564;DHT22;19894;48.452;11.494;2023-06-04T10:09:05;20.40;47.30
33564;DHT22;19894;48.452;11.494;2023-06-04T10:11:50;20.40;47.30
33564;DHT22;19894;48.452;11.494;2023-06-04T10:14:41;20.40;47.20
33564;DHT22;19894;48.452;11.494;2023-06-04T10:17:11;20.40;47.20
33564;DHT22;19894;48.452;11.494;2023-06-04T10:19:38;20.40;47.20
33564;DHT22;19894;48.452;11.494;2023-06-04T10:22:06;20.40;47.10
33564;DHT22;19894;48.452;11.494;2023-06-04T10:24:32;20.40;47.10
33564;DHT22;19894;48.452;11.494;2023-06-04T10:27:01;20.40;47.10
33564;DHT22;19894;48.452;11.494;2023-06-04T10:29:33;20.40;47.10
33564;DHT22;19894;48.452;11.494;2023-06-04T10:32:00;20.40;47.10
33564;DHT22;19894;48.452;11.494;2023-06-04T10:34:26;20.40;47.00
33564;DHT22;19894;48.452;11.494;2023-06-04T10:36:52;20.40;47.10
33564;DHT22;19894;48.452;11.494;2023-06-04T10:39:28;20.40;47.10
33564;DHT22;19894;48.452;11.494;2023-06-04T10:42:03;20.40;47.10
33564;DHT22;19894;48.452;11.494;2023-06-04T10:44:43;20.40;47.20
33564;DHT22;19894;48.452;11.494;2023-06-04T10:47:21;20.40;47.10
33564;DHT22;19894;48.452;11.494;2023-06-04T10:49:48;20.40;47.10
33564;DHT22;19894;48.452;11.494;2023-06-04T10:52:14;20.40;47.20
33564;DHT22;19894;48.452;11.494;2023-06-04T10:54:42;20.40;47.30
33564;DHT22;19894;48.452;11.494;2023-06-04T10:57:14;20.40;47.30
33564;DHT22;19894;48.452;11.494;2023-06-04T10:59:41;20.40;47.20
33564;DHT22;19894;48.452;11.494;2023-06-04T11:02:08;20.30;47.20
33564;DHT22;19894;48.452;11.494;2023-06-04T11:04:34;20.40;47.20
33564;DHT22;19894;48.452;11.494;2023-06-04T11:09:34;20.40;47.20
33564;DHT22;19894;48.452;11.494;2023-06-04T11:12:00;20.40;47.20
33564;DHT22;19894;48.452;11.494;2023-06-04T11:14:26;20.40;47.20
33564;DHT22;19894;48.452;11.494;2023-06-04T11:16:52;20.40;47.10
33564;DHT22;19894;48.452;11.494;2023-06-04T11:19:18;20.40;47.10
33564;DHT22;19894;48.452;11.494;2023-06-04T11:21:44;20.40;47.10
33564;DHT22;19894;48.452;11.494;2023-06-04T11:24:12;20.40;47.10
33564;DHT22;19894;48.452;11.494;2023-06-04T11:26:37;20.40;47.10
33564;DHT22;19894;48.452;11.494;2023-06-04T11:29:07;20.40;47.10
33564;DHT22;19894;48.452;11.494;2023-06-04T11:31:45;20.40;47.10
33564;DHT22;19894;48.452;11.494;2023-06-04T11:34:21;20.40;47.00
33564;DHT22;19894;48.452;11.494;2023-06-04T11:36:47;20.40;47.00
33564;DHT22;19894;48.452;11.494;2023-06-04T11:39:15;20.40;47.00
33564;DHT22;19894;48.452;11.494;2023-06-04T11:41:41;20.40;47.10
33564;DHT22;19894;48.452;11.494;2023-06-04T11:44:07;20.40;47.00
33564;DHT22;19894;48.452;11.494;2023-06-04T11:46:34;20.40;47.00
33564;DHT22;19894;48.452;11.494;2023-06-04T11:49:00;20.40;46.90
33564;DHT22;19894;48.452;11.494;2023-06-04T11:51:27;20.40;46.90
33564;DHT22;19894;48.452;11.494;2023-06-04T11:53:53;20.40;46.90
33564;DHT22;19894;48.452;11.494;2023-06-04T11:56:18;20.40;47.00
33564;DHT22;19894;48.452;11.494;2023-06-04T11:58:44;20.40;46.90
33564;DHT22;19894;48.452;11.494;2023-06-04T12:01:12;20.40;46.90
33564;DHT22;19894;48.452;11.494;2023-06-04T12:03:42;20.40;47.10
33564;DHT22;19894;48.452;11.494;2023-06-04T12:06:14;20.40;46.90
33564;DHT22;19894;48.452;11.494;2023-06-04T12:08:54;20.40;47.00
33564;DHT22;19894;48.452;11.494;2023-06-04T12:11:26;20.40;46.90
33564;DHT22;19894;48.452;11.494;2023-06-04T12:13:56;20.40;47.00
33564;DHT22;19894;48.452;11.494;2023-06-04T12:16:22;20.40;47.00
33564;DHT22;19894;48.452;11.494;2023-06-04T12:18:47;20.40;47.10
33564;DHT22;19894;48.452;11.494;2023-06-04T12:21:22;20.40;47.00
33564;DHT22;19894;48.452;11.494;2023-06-04T12:24:05;20.40;47.00
33564;DHT22;19894;48.452;11.494;2023-06-04T12:26:31;20.40;47.00
33564;DHT22;19894;48.452;11.494;2023-06-04T12:29:01;20.40;47.00
33564;DHT22;19894;48.452;11.494;2023-06-04T12:31:27;20.40;47.00
33564;DHT22;19894;48.452;11.494;2023-06-04T12:34:01;20.50;47.10
33564;DHT22;19894;48.452;11.494;2023-06-04T12:36:27;20.40;47.00
33564;DHT22;19894;48.452;11.494;2023-06-04T12:38:57;20.50;47.10
33564;DHT22;19894;48.452;11.494;2023-06-04T12:41:23;20.40;47.00
33564;DHT22;19894;48.452;11.494;2023-06-04T12:43:48;20.50;47.10
33564;DHT22;19894;48.452;11.494;2023-06-04T12:46:14;20.40;47.00
33564;DHT22;19894;48.452;11.494;2023-06-04T12:48:39;20.40;46.90
33564;DHT22;19894;48.452;11.494;2023-06-04T12:51:07;20.40;46.90
33564;DHT22;19894;48.452;11.494;2023-06-04T12:53:33;20.40;47.00
33564;DHT22;19894;48.452;11.494;2023-06-04T12:55:59;20.40;47.00
33564;DHT22;19894;48.452;11.494;2023-06-04T12:58:24;20.40;47.00
33564;DHT22;19894;48.452;11.494;2023-06-04T13:00:50;20.40;46.90
33564;DHT22;19894;48.452;11.494;2023-06-04T13:03:15;20.40;47.00
33564;DHT22;19894;48.452;11.494;2023-06-04T13:05:41;20.40;47.10
33564;DHT22;19894;48.452;11.494;2023-06-04T13:08:06;20.40;47.00
33564;DHT22;19894;48.452;11.494;2023-06-04T13:10:32;20.40;46.90
33564;DHT22;19894;48.452;11.494;2023-06-04T13:12:58;20.40;46.90
33564;DHT22;19894;48.452;11.494;2023-06-04T13:15:23;20.40;46.90
33564;DHT22;19894;48.452;11.494;2023-06-04T13:17:49;20.40;47.00
33564;DHT22;19894;48.452;11.494;2023-06-04T13:20:14;20.40;46.90
33564;DHT22;19894;48.452;11.494;2023-06-04T13:22:40;20.40;46.90
33564;DHT22;19894;48.452;11.494;2023-06-04T13:25:06;20.40;46.90
33564;DHT22;19894;48.452;11.494;2023-06-04T13:27:32;20.50;46.90
33564;DHT22;19894;48.452;11.494;2023-06-04T13:29:57;20.40;46.80
33564;DHT22;19894;48.452;11.494;2023-06-04T13:32:23;20.40;46.80
33564;DHT22;19894;48.452;11.494;2023-06-04T13:34:48;20.50;46.80
33564;DHT22;19894;48.452;11.494;2023-06-04T13:37:14;20.50;46.80
33564;DHT22;19894;48.452;11.494;2023-06-04T13:39:40;20.50;46.70
33564;DHT22;19894;48.452;11.494;2023-06-04T13:42:05;20.50;46.70
33564;DHT22;19894;48.452;11.494;2023-06-04T13:44:31;20.50;46.70
33564;DHT22;19894;48.452;11.494;2023-06-04T13:46:59;20.40;46.60
33564;DHT22;19894;48.452;11.494;2023-06-04T13:49:24;20.40;46.60
33564;DHT22;19894;48.452;11.494;2023-06-04T13:51:50;20.40;46.50
33564;DHT22;19894;48.452;11.494;2023-06-04T13:54:15;20.50;46.70
33564;DHT22;19894;48.452;11.494;2023-06-04T13:56:41;20.40;46.40
33564;DHT22;19894;48.452;11.494;2023-06-04T13:59:07;20.40;46.50
33564;DHT22;19894;48.452;11.494;2023-06-04T14:01:32;20.40;46.40
33564;DHT22;19894;48.452;11.494;2023-06-04T14:03:58;20.40;46.20
33564;DHT22;19894;48.452;11.494;2023-06-04T14:06:26;20.40;46.40
33564;DHT22;19894;48.452;11.494;2023-06-04T14:08:52;20.40;46.40
33564;DHT22;19894;48.452;11.494;2023-06-04T14:11:17;20.40;46.50
33564;DHT22;19894;48.452;11.494;2023-06-04T14:13:43;20.40;46.40
33564;DHT22;19894;48.452;11.494;2023-06-04T14:16:10;20.40;46.50
33564;DHT22;19894;48.452;11.494;2023-06-04T14:18:36;20.40;46.50
33564;DHT22;19894;48.452;11.494;2023-06-04T14:21:01;20.40;46.50
33564;DHT22;19894;48.452;11.494;2023-06-04T14:23:27;20.40;46.40
33564;DHT22;19894;48.452;11.494;2023-06-04T14:25:52;20.40;46.50
33564;DHT22;19894;48.452;11.494;2023-06-04T14:28:18;20.40;46.50
33564;DHT22;19894;48.452;11.494;2023-06-04T14:30:46;20.50;46.60
33564;DHT22;19894;48.452;11.494;2023-06-04T14:33:11;20.40;46.50
33564;DHT22;19894;48.452;11.494;2023-06-04T14:35:37;20.50;46.60
33564;DHT22;19894;48.452;11.494;2023-06-04T14:38:04;20.50;46.50
33564;DHT22;19894;48.452;11.494;2023-06-04T14:40:30;20.40;46.50
33564;DHT22;19894;48.452;11.494;2023-06-04T14:42:55;20.50;46.50
33564;DHT22;19894;48.452;11.494;2023-06-04T14:45:22;20.40;46.40
33564;DHT22;19894;48.452;11.494;2023-06-04T14:47:48;20.50;46.50
33564;DHT22;19894;48.452;11.494;2023-06-04T14:50:17;20.50;46.40
33564;DHT22;19894;48.452;11.494;2023-06-04T14:52:44;20.50;46.40
33564;DHT22;19894;48.452;11.494;2023-06-04T14:55:09;20.50;46.40
33564;DHT22;19894;48.452;11.494;2023-06-04T14:57:35;20.40;46.30
33564;DHT22;19894;48.452;11.494;2023-06-04T15:00:01;20.50;46.40
33564;DHT22;19894;48.452;11.494;2023-06-04T15:02:27;20.50;46.40
33564;DHT22;19894;48.452;11.494;2023-06-04T15:04:55;20.50;46.40
33564;DHT22;19894;48.452;11.494;2023-06-04T15:07:22;20.40;46.30
33564;DHT22;19894;48.452;11.494;2023-06-04T15:09:48;20.40;46.30
33564;DHT22;19894;48.452;11.494;2023-06-04T15:12:14;20.40;46.30
33564;DHT22;19894;48.452;11.494;2023-06-04T15:14:42;20.40;46.30
33564;DHT22;19894;48.452;11.494;2023-06-04T15:17:07;20.40;46.30
33564;DHT22;19894;48.452;11.494;2023-06-04T15:19:33;20.40;46.40
33564;DHT22;19894;48.452;11.494;2023-06-04T15:21:58;20.40;46.40
33564;DHT22;19894;48.452;11.494;2023-06-04T15:24:24;20.40;46.40